sensor_id;sensor_type;location;lat;lon;timestamp;P1;durP1;ratioP1;P2;durP2;ratioP2
58081;SDS011;43876;55.576;38.242;2022-08-20T00:01:02;27.35;;;17.17;;
58081;SDS011;43876;55.576;38.242;2022-08-20T00:03:34;30.00;;;17.85;;
58081;SDS011;43876;55.576;38.242;2022-08-20T00:06:09;27.27;;;16.45;;
58081;SDS011;43876;55.576;38.242;2022-08-20T00:08:39;30.90;;;16.75;;
58081;SDS011;43876;55.576;38.242;2022-08-20T00:11:07;27.50;;;16.55;;
58081;SDS011;43876;55.576;38.242;2022-08-20T00:13:39;26.95;;;16.58;;
58081;SDS011;43876;55.576;38.242;2022-08-20T00:16:20;25.45;;;16.00;;
58081;SDS011;43876;55.576;38.242;2022-08-20T00:18:48;25.92;;;16.10;;
58081;SDS011;43876;55.576;38.242;2022-08-20T00:21:17;24.05;;;16.65;;
58081;SDS011;43876;55.576;38.242;2022-08-20T00:23:47;29.70;;;16.35;;
58081;SDS011;43876;55.576;38.242;2022-08-20T00:28:43;26.63;;;16.20;;
58081;SDS011;43876;55.576;38.242;2022-08-20T00:31:12;23.88;;;16.42;;
58081;SDS011;43876;55.576;38.242;2022-08-20T00:33:42;26.92;;;16.20;;
58081;SDS011;43876;55.576;38.242;2022-08-20T00:36:10;25.02;;;16.27;;
58081;SDS011;43876;55.576;38.242;2022-08-20T00:38:38;27.17;;;16.65;;
58081;SDS011;43876;55.576;38.242;2022-08-20T00:43:45;25.27;;;16.42;;
58081;SDS011;43876;55.576;38.242;2022-08-20T00:48:48;26.52;;;16.00;;
58081;SDS011;43876;55.576;38.242;2022-08-20T00:54:07;28.77;;;16.48;;
58081;SDS011;43876;55.576;38.242;2022-08-20T00:56:36;26.70;;;16.75;;
58081;SDS011;43876;55.576;38.242;2022-08-20T00:59:05;24.95;;;15.52;;
58081;SDS011;43876;55.576;38.242;2022-08-20T01:01:37;23.73;;;15.65;;
58081;SDS011;43876;55.576;38.242;2022-08-20T01:04:21;24.23;;;14.85;;
58081;SDS011;43876;55.576;38.242;2022-08-20T01:06:53;22.60;;;15.15;;
58081;SDS011;43876;55.576;38.242;2022-08-20T01:09:21;24.95;;;14.70;;
58081;SDS011;43876;55.576;38.242;2022-08-20T01:12:09;24.67;;;14.93;;
58081;SDS011;43876;55.576;38.242;2022-08-20T01:14:36;22.83;;;14.38;;
58081;SDS011;43876;55.576;38.242;2022-08-20T01:17:04;26.25;;;15.73;;
58081;SDS011;43876;55.576;38.242;2022-08-20T01:19:38;21.23;;;14.32;;
58081;SDS011;43876;55.576;38.242;2022-08-20T01:22:09;32.83;;;14.77;;
58081;SDS011;43876;55.576;38.242;2022-08-20T01:25:00;24.30;;;14.85;;
58081;SDS011;43876;55.576;38.242;2022-08-20T01:27:33;21.73;;;14.93;;
58081;SDS011;43876;55.576;38.242;2022-08-20T01:30:08;26.73;;;15.35;;
58081;SDS011;43876;55.576;38.242;2022-08-20T01:32:36;21.45;;;13.90;;
58081;SDS011;43876;55.576;38.242;2022-08-20T01:35:03;27.73;;;14.20;;
58081;SDS011;43876;55.576;38.242;2022-08-20T01:37:31;25.77;;;14.80;;
58081;SDS011;43876;55.576;38.242;2022-08-20T01:39:58;25.05;;;14.63;;
58081;SDS011;43876;55.576;38.242;2022-08-20T01:42:26;22.75;;;14.95;;
58081;SDS011;43876;55.576;38.242;2022-08-20T01:45:19;26.58;;;15.93;;
58081;SDS011;43876;55.576;38.242;2022-08-20T01:47:52;25.45;;;15.55;;
58081;SDS011;43876;55.576;38.242;2022-08-20T01:50:22;25.40;;;16.15;;
58081;SDS011;43876;55.576;38.242;2022-08-20T01:55:35;29.17;;;18.08;;
58081;SDS011;43876;55.576;38.242;2022-08-20T01:58:03;32.97;;;18.17;;
58081;SDS011;43876;55.576;38.242;2022-08-20T02:00:30;33.63;;;20.60;;
58081;SDS011;43876;55.576;38.242;2022-08-20T02:02:58;33.15;;;20.45;;
58081;SDS011;43876;55.576;38.242;2022-08-20T02:05:25;31.10;;;20.17;;
58081;SDS011;43876;55.576;38.242;2022-08-20T02:07:56;31.17;;;20.55;;
58081;SDS011;43876;55.576;38.242;2022-08-20T02:10:23;34.90;;;21.48;;
58081;SDS011;43876;55.576;38.242;2022-08-20T02:12:50;31.88;;;21.63;;
58081;SDS011;43876;55.576;38.242;2022-08-20T02:15:39;32.03;;;21.83;;
58081;SDS011;43876;55.576;38.242;2022-08-20T02:18:10;31.80;;;21.23;;
58081;SDS011;43876;55.576;38.242;2022-08-20T02:20:40;32.13;;;20.52;;
58081;SDS011;43876;55.576;38.242;2022-08-20T02:23:09;28.98;;;20.40;;
58081;SDS011;43876;55.576;38.242;2022-08-20T02:25:38;32.28;;;19.65;;
58081;SDS011;43876;55.576;38.242;2022-08-20T02:28:08;30.17;;;19.27;;
58081;SDS011;43876;55.576;38.242;2022-08-20T02:30:39;26.38;;;17.38;;
58081;SDS011;43876;55.576;38.242;2022-08-20T02:33:10;26.98;;;16.40;;
58081;SDS011;43876;55.576;38.242;2022-08-20T02:35:40;26.23;;;16.05;;
58081;SDS011;43876;55.576;38.242;2022-08-20T02:38:09;22.73;;;14.20;;
58081;SDS011;43876;55.576;38.242;2022-08-20T02:40:37;26.15;;;14.23;;
58081;SDS011;43876;55.576;38.242;2022-08-20T02:43:05;22.35;;;14.30;;
58081;SDS011;43876;55.576;38.242;2022-08-20T02:45:33;22.13;;;13.20;;
58081;SDS011;43876;55.576;38.242;2022-08-20T02:48:11;19.10;;;11.80;;
58081;SDS011;43876;55.576;38.242;2022-08-20T02:50:47;21.27;;;11.60;;
58081;SDS011;43876;55.576;38.242;2022-08-20T02:53:26;20.73;;;11.80;;
58081;SDS011;43876;55.576;38.242;2022-08-20T02:55:55;20.73;;;11.45;;
58081;SDS011;43876;55.576;38.242;2022-08-20T02:58:22;19.98;;;9.60;;
58081;SDS011;43876;55.576;38.242;2022-08-20T03:00:50;21.63;;;10.02;;
58081;SDS011;43876;55.576;38.242;2022-08-20T03:03:17;17.23;;;10.00;;
58081;SDS011;43876;55.576;38.242;2022-08-20T03:05:52;16.65;;;9.40;;
58081;SDS011;43876;55.576;38.242;2022-08-20T03:08:22;20.17;;;10.20;;
58081;SDS011;43876;55.576;38.242;2022-08-20T03:10:50;17.90;;;9.85;;
58081;SDS011;43876;55.576;38.242;2022-08-20T03:13:30;17.77;;;9.70;;
58081;SDS011;43876;55.576;38.242;2022-08-20T03:16:05;14.77;;;8.65;;
58081;SDS011;43876;55.576;38.242;2022-08-20T03:18:53;16.13;;;8.65;;
58081;SDS011;43876;55.576;38.242;2022-08-20T03:21:21;16.77;;;8.80;;
58081;SDS011;43876;55.576;38.242;2022-08-20T03:23:48;16.05;;;9.13;;
58081;SDS011;43876;55.576;38.242;2022-08-20T03:26:15;14.10;;;8.10;;
58081;SDS011;43876;55.576;38.242;2022-08-20T03:28:43;21.17;;;8.18;;
58081;SDS011;43876;55.576;38.242;2022-08-20T03:31:10;15.18;;;7.63;;
58081;SDS011;43876;55.576;38.242;2022-08-20T03:33:43;16.27;;;7.85;;
58081;SDS011;43876;55.576;38.242;2022-08-20T03:36:20;18.20;;;7.70;;
58081;SDS011;43876;55.576;38.242;2022-08-20T03:38:55;11.73;;;6.70;;
58081;SDS011;43876;55.576;38.242;2022-08-20T03:41:23;13.70;;;6.97;;
58081;SDS011;43876;55.576;38.242;2022-08-20T03:43:51;11.05;;;6.55;;
58081;SDS011;43876;55.576;38.242;2022-08-20T03:46:21;16.45;;;7.63;;
58081;SDS011;43876;55.576;38.242;2022-08-20T03:48:59;15.43;;;7.80;;
58081;SDS011;43876;55.576;38.242;2022-08-20T03:51:27;16.27;;;7.10;;
58081;SDS011;43876;55.576;38.242;2022-08-20T03:53:56;11.70;;;7.00;;
58081;SDS011;43876;55.576;38.242;2022-08-20T03:56:24;19.50;;;7.82;;
58081;SDS011;43876;55.576;38.242;2022-08-20T03:58:59;11.95;;;6.68;;
58081;SDS011;43876;55.576;38.242;2022-08-20T04:01:29;18.77;;;7.53;;
58081;SDS011;43876;55.576;38.242;2022-08-20T04:04:12;15.57;;;7.80;;
58081;SDS011;43876;55.576;38.242;2022-08-20T04:06:41;12.32;;;7.75;;
58081;SDS011;43876;55.576;38.242;2022-08-20T04:09:16;18.58;;;7.95;;
58081;SDS011;43876;55.576;38.242;2022-08-20T04:11:44;15.45;;;7.22;;
58081;SDS011;43876;55.576;38.242;2022-08-20T04:14:27;14.45;;;8.38;;
58081;SDS011;43876;55.576;38.242;2022-08-20T04:16:56;17.92;;;9.25;;
58081;SDS011;43876;55.576;38.242;2022-08-20T04:19:26;22.50;;;9.35;;
58081;SDS011;43876;55.576;38.242;2022-08-20T04:22:02;15.60;;;9.20;;
58081;SDS011;43876;55.576;38.242;2022-08-20T04:24:30;18.20;;;8.68;;
58081;SDS011;43876;55.576;38.242;2022-08-20T04:26:59;15.52;;;8.82;;
58081;SDS011;43876;55.576;38.242;2022-08-20T04:29:46;13.30;;;7.75;;
58081;SDS011;43876;55.576;38.242;2022-08-20T04:32:16;15.20;;;8.20;;
58081;SDS011;43876;55.576;38.242;2022-08-20T04:34:44;11.35;;;8.30;;
58081;SDS011;43876;55.576;38.242;2022-08-20T04:37:22;18.40;;;8.82;;
58081;SDS011;43876;55.576;38.242;2022-08-20T04:39:55;11.60;;;7.72;;
58081;SDS011;43876;55.576;38.242;2022-08-20T04:42:41;16.30;;;7.00;;
58081;SDS011;43876;55.576;38.242;2022-08-20T04:45:11;12.60;;;6.57;;
58081;SDS011;43876;55.576;38.242;2022-08-20T04:47:38;14.10;;;6.65;;
58081;SDS011;43876;55.576;38.242;2022-08-20T04:50:07;10.43;;;6.75;;
58081;SDS011;43876;55.576;38.242;2022-08-20T04:53:03;10.48;;;6.25;;
58081;SDS011;43876;55.576;38.242;2022-08-20T04:56:04;12.60;;;5.50;;
58081;SDS011;43876;55.576;38.242;2022-08-20T04:58:36;12.18;;;5.45;;
58081;SDS011;43876;55.576;38.242;2022-08-20T05:01:09;10.02;;;5.57;;
58081;SDS011;43876;55.576;38.242;2022-08-20T05:03:41;10.57;;;5.38;;
58081;SDS011;43876;55.576;38.242;2022-08-20T05:06:36;14.25;;;5.53;;
58081;SDS011;43876;55.576;38.242;2022-08-20T05:09:04;11.25;;;5.07;;
58081;SDS011;43876;55.576;38.242;2022-08-20T05:11:31;9.82;;;5.32;;
58081;SDS011;43876;55.576;38.242;2022-08-20T05:14:06;13.02;;;5.07;;
58081;SDS011;43876;55.576;38.242;2022-08-20T05:16:36;12.05;;;4.85;;
58081;SDS011;43876;55.576;38.242;2022-08-20T05:19:06;7.60;;;4.90;;
58081;SDS011;43876;55.576;38.242;2022-08-20T05:21:41;11.25;;;4.50;;
58081;SDS011;43876;55.576;38.242;2022-08-20T05:24:08;7.97;;;4.75;;
58081;SDS011;43876;55.576;38.242;2022-08-20T05:26:36;10.88;;;5.28;;
58081;SDS011;43876;55.576;38.242;2022-08-20T05:29:04;11.45;;;4.55;;
58081;SDS011;43876;55.576;38.242;2022-08-20T05:31:33;9.80;;;5.80;;
58081;SDS011;43876;55.576;38.242;2022-08-20T05:34:01;10.88;;;4.78;;
58081;SDS011;43876;55.576;38.242;2022-08-20T05:36:42;8.48;;;4.70;;
58081;SDS011;43876;55.576;38.242;2022-08-20T05:39:15;8.93;;;4.80;;
58081;SDS011;43876;55.576;38.242;2022-08-20T05:41:44;11.30;;;5.47;;
58081;SDS011;43876;55.576;38.242;2022-08-20T05:44:10;11.93;;;4.90;;
58081;SDS011;43876;55.576;38.242;2022-08-20T05:46:42;8.03;;;4.77;;
58081;SDS011;43876;55.576;38.242;2022-08-20T05:49:16;10.00;;;4.68;;
58081;SDS011;43876;55.576;38.242;2022-08-20T05:51:46;10.55;;;4.93;;
58081;SDS011;43876;55.576;38.242;2022-08-20T05:54:14;9.77;;;5.15;;
58081;SDS011;43876;55.576;38.242;2022-08-20T05:56:41;8.10;;;5.10;;
58081;SDS011;43876;55.576;38.242;2022-08-20T05:59:09;10.55;;;4.80;;
58081;SDS011;43876;55.576;38.242;2022-08-20T06:01:37;12.88;;;5.03;;
58081;SDS011;43876;55.576;38.242;2022-08-20T06:04:13;8.52;;;4.60;;
58081;SDS011;43876;55.576;38.242;2022-08-20T06:07:02;9.02;;;4.47;;
58081;SDS011;43876;55.576;38.242;2022-08-20T06:09:31;10.65;;;4.82;;
58081;SDS011;43876;55.576;38.242;2022-08-20T06:12:02;8.93;;;4.45;;
58081;SDS011;43876;55.576;38.242;2022-08-20T06:14:31;8.35;;;4.50;;
58081;SDS011;43876;55.576;38.242;2022-08-20T06:17:06;9.65;;;4.53;;
58081;SDS011;43876;55.576;38.242;2022-08-20T06:19:44;8.27;;;4.90;;
58081;SDS011;43876;55.576;38.242;2022-08-20T06:22:13;9.52;;;4.53;;
58081;SDS011;43876;55.576;38.242;2022-08-20T06:24:52;11.18;;;4.78;;
58081;SDS011;43876;55.576;38.242;2022-08-20T06:27:20;11.35;;;5.20;;
58081;SDS011;43876;55.576;38.242;2022-08-20T06:29:48;9.88;;;4.90;;
58081;SDS011;43876;55.576;38.242;2022-08-20T06:32:16;9.30;;;4.97;;
58081;SDS011;43876;55.576;38.242;2022-08-20T06:34:54;10.40;;;5.00;;
58081;SDS011;43876;55.576;38.242;2022-08-20T06:37:23;14.02;;;5.40;;
58081;SDS011;43876;55.576;38.242;2022-08-20T06:40:03;8.80;;;5.70;;
58081;SDS011;43876;55.576;38.242;2022-08-20T06:42:32;13.40;;;5.40;;
58081;SDS011;43876;55.576;38.242;2022-08-20T06:45:00;12.80;;;5.82;;
58081;SDS011;43876;55.576;38.242;2022-08-20T06:47:30;9.77;;;5.45;;
58081;SDS011;43876;55.576;38.242;2022-08-20T06:50:02;9.50;;;5.10;;
58081;SDS011;43876;55.576;38.242;2022-08-20T06:52:33;9.60;;;5.25;;
58081;SDS011;43876;55.576;38.242;2022-08-20T06:55:19;13.00;;;5.68;;
58081;SDS011;43876;55.576;38.242;2022-08-20T06:57:46;12.32;;;5.80;;
58081;SDS011;43876;55.576;38.242;2022-08-20T07:00:15;11.63;;;5.68;;
58081;SDS011;43876;55.576;38.242;2022-08-20T07:02:45;11.63;;;5.70;;
58081;SDS011;43876;55.576;38.242;2022-08-20T07:05:13;9.65;;;5.75;;
58081;SDS011;43876;55.576;38.242;2022-08-20T07:07:45;11.82;;;5.90;;
58081;SDS011;43876;55.576;38.242;2022-08-20T07:10:15;9.27;;;5.75;;
58081;SDS011;43876;55.576;38.242;2022-08-20T07:12:44;11.73;;;5.67;;
58081;SDS011;43876;55.576;38.242;2022-08-20T07:15:18;10.10;;;5.95;;
58081;SDS011;43876;55.576;38.242;2022-08-20T07:17:50;10.23;;;5.30;;
58081;SDS011;43876;55.576;38.242;2022-08-20T07:20:26;10.32;;;5.72;;
58081;SDS011;43876;55.576;38.242;2022-08-20T07:22:54;12.63;;;5.82;;
58081;SDS011;43876;55.576;38.242;2022-08-20T07:25:22;11.00;;;5.68;;
58081;SDS011;43876;55.576;38.242;2022-08-20T07:27:49;9.43;;;5.35;;
58081;SDS011;43876;55.576;38.242;2022-08-20T07:30:19;15.93;;;5.70;;
58081;SDS011;43876;55.576;38.242;2022-08-20T07:33:24;10.10;;;5.32;;
58081;SDS011;43876;55.576;38.242;2022-08-20T07:35:54;12.05;;;5.03;;
58081;SDS011;43876;55.576;38.242;2022-08-20T07:38:23;10.23;;;5.15;;
58081;SDS011;43876;55.576;38.242;2022-08-20T07:40:53;8.75;;;5.20;;
58081;SDS011;43876;55.576;38.242;2022-08-20T07:43:28;9.48;;;5.20;;
58081;SDS011;43876;55.576;38.242;2022-08-20T07:45:56;8.82;;;5.70;;
58081;SDS011;43876;55.576;38.242;2022-08-20T07:48:27;12.95;;;5.90;;
58081;SDS011;43876;55.576;38.242;2022-08-20T07:50:58;12.48;;;6.47;;
58081;SDS011;43876;55.576;38.242;2022-08-20T07:53:30;11.25;;;5.82;;
58081;SDS011;43876;55.576;38.242;2022-08-20T07:56:06;13.65;;;6.28;;
58081;SDS011;43876;55.576;38.242;2022-08-20T07:58:38;14.80;;;6.35;;
58081;SDS011;43876;55.576;38.242;2022-08-20T08:01:08;13.02;;;6.25;;
58081;SDS011;43876;55.576;38.242;2022-08-20T08:03:37;11.02;;;6.53;;
58081;SDS011;43876;55.576;38.242;2022-08-20T08:06:15;13.35;;;6.35;;
58081;SDS011;43876;55.576;38.242;2022-08-20T08:08:56;13.43;;;7.00;;
58081;SDS011;43876;55.576;38.242;2022-08-20T08:11:27;13.77;;;7.40;;
58081;SDS011;43876;55.576;38.242;2022-08-20T08:13:55;12.57;;;7.13;;
58081;SDS011;43876;55.576;38.242;2022-08-20T08:16:25;14.68;;;6.97;;
58081;SDS011;43876;55.576;38.242;2022-08-20T08:18:54;13.20;;;7.53;;
58081;SDS011;43876;55.576;38.242;2022-08-20T08:21:23;12.60;;;7.00;;
58081;SDS011;43876;55.576;38.242;2022-08-20T08:23:51;12.55;;;7.82;;
58081;SDS011;43876;55.576;38.242;2022-08-20T08:26:19;12.68;;;7.93;;
58081;SDS011;43876;55.576;38.242;2022-08-20T08:28:47;16.52;;;8.27;;
58081;SDS011;43876;55.576;38.242;2022-08-20T08:31:14;16.10;;;9.23;;
58081;SDS011;43876;55.576;38.242;2022-08-20T08:33:41;15.50;;;9.27;;
58081;SDS011;43876;55.576;38.242;2022-08-20T08:36:12;18.05;;;9.00;;
58081;SDS011;43876;55.576;38.242;2022-08-20T08:38:42;14.10;;;8.68;;
58081;SDS011;43876;55.576;38.242;2022-08-20T08:41:15;15.43;;;9.02;;
58081;SDS011;43876;55.576;38.242;2022-08-20T08:43:51;17.90;;;9.57;;
58081;SDS011;43876;55.576;38.242;2022-08-20T08:46:25;15.55;;;10.18;;
58081;SDS011;43876;55.576;38.242;2022-08-20T08:48:55;15.90;;;9.02;;
58081;SDS011;43876;55.576;38.242;2022-08-20T08:51:27;17.52;;;9.43;;
58081;SDS011;43876;55.576;38.242;2022-08-20T08:54:00;17.38;;;9.27;;
58081;SDS011;43876;55.576;38.242;2022-08-20T08:56:33;17.98;;;10.13;;
58081;SDS011;43876;55.576;38.242;2022-08-20T08:59:02;18.75;;;10.50;;
58081;SDS011;43876;55.576;38.242;2022-08-20T09:01:35;18.45;;;9.73;;
58081;SDS011;43876;55.576;38.242;2022-08-20T09:04:22;17.73;;;10.35;;
58081;SDS011;43876;55.576;38.242;2022-08-20T09:06:58;19.10;;;10.77;;
58081;SDS011;43876;55.576;38.242;2022-08-20T09:09:29;21.38;;;11.10;;
58081;SDS011;43876;55.576;38.242;2022-08-20T09:12:03;20.48;;;10.77;;
58081;SDS011;43876;55.576;38.242;2022-08-20T09:14:32;18.58;;;11.95;;
58081;SDS011;43876;55.576;38.242;2022-08-20T09:17:00;18.30;;;11.02;;
58081;SDS011;43876;55.576;38.242;2022-08-20T09:19:27;20.35;;;11.43;;
58081;SDS011;43876;55.576;38.242;2022-08-20T09:21:54;20.73;;;11.45;;
58081;SDS011;43876;55.576;38.242;2022-08-20T09:24:21;17.05;;;11.77;;
58081;SDS011;43876;55.576;38.242;2022-08-20T09:26:48;22.63;;;11.93;;
58081;SDS011;43876;55.576;38.242;2022-08-20T09:29:16;18.23;;;11.43;;
58081;SDS011;43876;55.576;38.242;2022-08-20T09:31:43;16.48;;;10.57;;
58081;SDS011;43876;55.576;38.242;2022-08-20T09:34:12;22.38;;;10.48;;
58081;SDS011;43876;55.576;38.242;2022-08-20T09:36:40;19.85;;;10.60;;
58081;SDS011;43876;55.576;38.242;2022-08-20T09:39:07;19.35;;;10.73;;
58081;SDS011;43876;55.576;38.242;2022-08-20T09:41:35;18.17;;;9.55;;
58081;SDS011;43876;55.576;38.242;2022-08-20T09:44:02;14.85;;;9.38;;
58081;SDS011;43876;55.576;38.242;2022-08-20T09:46:30;18.80;;;10.20;;
58081;SDS011;43876;55.576;38.242;2022-08-20T09:48:56;15.70;;;9.05;;
58081;SDS011;43876;55.576;38.242;2022-08-20T09:51:23;18.73;;;9.48;;
58081;SDS011;43876;55.576;38.242;2022-08-20T09:53:51;19.38;;;9.38;;
58081;SDS011;43876;55.576;38.242;2022-08-20T09:56:18;18.88;;;8.18;;
58081;SDS011;43876;55.576;38.242;2022-08-20T09:58:49;17.63;;;8.73;;
58081;SDS011;43876;55.576;38.242;2022-08-20T10:01:19;17.33;;;8.63;;
58081;SDS011;43876;55.576;38.242;2022-08-20T10:03:48;18.87;;;8.67;;
58081;SDS011;43876;55.576;38.242;2022-08-20T10:06:16;14.73;;;8.05;;
58081;SDS011;43876;55.576;38.242;2022-08-20T10:08:46;13.38;;;8.13;;
58081;SDS011;43876;55.576;38.242;2022-08-20T10:11:14;15.30;;;7.68;;
58081;SDS011;43876;55.576;38.242;2022-08-20T10:13:43;12.02;;;7.03;;
58081;SDS011;43876;55.576;38.242;2022-08-20T10:16:11;14.27;;;6.60;;
58081;SDS011;43876;55.576;38.242;2022-08-20T10:18:39;10.25;;;6.72;;
58081;SDS011;43876;55.576;38.242;2022-08-20T10:21:09;10.43;;;6.47;;
58081;SDS011;43876;55.576;38.242;2022-08-20T10:23:37;10.98;;;7.05;;
58081;SDS011;43876;55.576;38.242;2022-08-20T10:26:09;11.77;;;5.88;;
58081;SDS011;43876;55.576;38.242;2022-08-20T10:28:37;10.85;;;5.70;;
58081;SDS011;43876;55.576;38.242;2022-08-20T10:31:05;10.70;;;5.43;;
58081;SDS011;43876;55.576;38.242;2022-08-20T10:33:34;9.00;;;5.50;;
58081;SDS011;43876;55.576;38.242;2022-08-20T10:36:20;12.20;;;5.28;;
58081;SDS011;43876;55.576;38.242;2022-08-20T10:38:47;10.20;;;5.50;;
58081;SDS011;43876;55.576;38.242;2022-08-20T10:41:14;11.60;;;5.82;;
58081;SDS011;43876;55.576;38.242;2022-08-20T10:43:41;11.18;;;5.10;;
58081;SDS011;43876;55.576;38.242;2022-08-20T10:46:08;10.07;;;5.50;;
58081;SDS011;43876;55.576;38.242;2022-08-20T10:48:36;11.85;;;4.53;;
58081;SDS011;43876;55.576;38.242;2022-08-20T10:51:03;9.55;;;5.03;;
58081;SDS011;43876;55.576;38.242;2022-08-20T10:53:30;14.63;;;4.57;;
58081;SDS011;43876;55.576;38.242;2022-08-20T10:55:58;7.40;;;4.00;;
58081;SDS011;43876;55.576;38.242;2022-08-20T10:58:26;7.95;;;3.85;;
58081;SDS011;43876;55.576;38.242;2022-08-20T11:01:05;10.73;;;3.92;;
58081;SDS011;43876;55.576;38.242;2022-08-20T11:03:32;9.75;;;4.28;;
58081;SDS011;43876;55.576;38.242;2022-08-20T11:06:01;7.55;;;4.13;;
58081;SDS011;43876;55.576;38.242;2022-08-20T11:08:28;10.77;;;4.65;;
58081;SDS011;43876;55.576;38.242;2022-08-20T11:11:01;9.80;;;4.78;;
58081;SDS011;43876;55.576;38.242;2022-08-20T11:13:34;12.02;;;4.45;;
58081;SDS011;43876;55.576;38.242;2022-08-20T11:16:03;7.85;;;4.32;;
58081;SDS011;43876;55.576;38.242;2022-08-20T11:18:31;10.45;;;4.70;;
58081;SDS011;43876;55.576;38.242;2022-08-20T11:20:58;7.70;;;4.90;;
58081;SDS011;43876;55.576;38.242;2022-08-20T11:23:26;9.25;;;4.63;;
58081;SDS011;43876;55.576;38.242;2022-08-20T11:25:56;9.48;;;4.68;;
58081;SDS011;43876;55.576;38.242;2022-08-20T11:28:23;6.75;;;4.53;;
58081;SDS011;43876;55.576;38.242;2022-08-20T11:30:58;9.20;;;4.75;;
58081;SDS011;43876;55.576;38.242;2022-08-20T11:33:26;11.60;;;4.70;;
58081;SDS011;43876;55.576;38.242;2022-08-20T11:35:54;9.82;;;4.28;;
58081;SDS011;43876;55.576;38.242;2022-08-20T11:38:21;11.85;;;4.60;;
58081;SDS011;43876;55.576;38.242;2022-08-20T11:40:48;8.68;;;3.70;;
58081;SDS011;43876;55.576;38.242;2022-08-20T11:43:15;8.05;;;3.75;;
58081;SDS011;43876;55.576;38.242;2022-08-20T11:45:44;8.60;;;3.38;;
58081;SDS011;43876;55.576;38.242;2022-08-20T11:48:17;10.73;;;3.50;;
58081;SDS011;43876;55.576;38.242;2022-08-20T11:50:45;8.63;;;3.78;;
58081;SDS011;43876;55.576;38.242;2022-08-20T11:53:12;8.40;;;3.47;;
58081;SDS011;43876;55.576;38.242;2022-08-20T11:55:41;8.23;;;3.42;;
58081;SDS011;43876;55.576;38.242;2022-08-20T11:58:09;7.90;;;4.05;;
58081;SDS011;43876;55.576;38.242;2022-08-20T12:00:36;6.70;;;3.63;;
58081;SDS011;43876;55.576;38.242;2022-08-20T12:03:04;7.40;;;3.83;;
58081;SDS011;43876;55.576;38.242;2022-08-20T12:05:36;7.65;;;4.20;;
58081;SDS011;43876;55.576;38.242;2022-08-20T12:08:04;8.77;;;4.38;;
58081;SDS011;43876;55.576;38.242;2022-08-20T12:10:32;8.32;;;3.63;;
58081;SDS011;43876;55.576;38.242;2022-08-20T12:12:59;3.90;;;3.25;;
58081;SDS011;43876;55.576;38.242;2022-08-20T12:15:31;9.15;;;3.47;;
58081;SDS011;43876;55.576;38.242;2022-08-20T12:18:00;9.43;;;4.00;;
58081;SDS011;43876;55.576;38.242;2022-08-20T12:20:32;10.00;;;3.88;;
58081;SDS011;43876;55.576;38.242;2022-08-20T12:23:02;7.50;;;3.80;;
58081;SDS011;43876;55.576;38.242;2022-08-20T12:25:31;10.40;;;3.70;;
58081;SDS011;43876;55.576;38.242;2022-08-20T12:27:59;8.48;;;3.97;;
58081;SDS011;43876;55.576;38.242;2022-08-20T12:30:27;5.90;;;3.78;;
58081;SDS011;43876;55.576;38.242;2022-08-20T12:32:54;8.00;;;4.05;;
58081;SDS011;43876;55.576;38.242;2022-08-20T12:35:22;7.95;;;4.15;;
58081;SDS011;43876;55.576;38.242;2022-08-20T12:37:49;6.20;;;4.13;;
58081;SDS011;43876;55.576;38.242;2022-08-20T12:40:21;8.63;;;4.60;;
58081;SDS011;43876;55.576;38.242;2022-08-20T12:43:02;7.95;;;4.60;;
58081;SDS011;43876;55.576;38.242;2022-08-20T12:45:31;10.85;;;5.10;;
58081;SDS011;43876;55.576;38.242;2022-08-20T12:48:00;11.52;;;5.10;;
58081;SDS011;43876;55.576;38.242;2022-08-20T12:50:30;11.52;;;5.10;;
58081;SDS011;43876;55.576;38.242;2022-08-20T12:52:58;11.48;;;5.10;;
58081;SDS011;43876;55.576;38.242;2022-08-20T12:55:26;13.80;;;5.43;;
58081;SDS011;43876;55.576;38.242;2022-08-20T12:57:55;10.32;;;5.32;;
58081;SDS011;43876;55.576;38.242;2022-08-20T13:00:27;10.85;;;5.38;;
58081;SDS011;43876;55.576;38.242;2022-08-20T13:03:04;10.25;;;5.40;;
58081;SDS011;43876;55.576;38.242;2022-08-20T13:05:36;11.77;;;6.45;;
58081;SDS011;43876;55.576;38.242;2022-08-20T13:08:19;11.48;;;6.00;;
58081;SDS011;43876;55.576;38.242;2022-08-20T13:11:00;11.93;;;6.57;;
58081;SDS011;43876;55.576;38.242;2022-08-20T13:13:29;13.27;;;6.75;;
58081;SDS011;43876;55.576;38.242;2022-08-20T13:15:56;12.68;;;7.30;;
58081;SDS011;43876;55.576;38.242;2022-08-20T13:18:23;11.75;;;6.68;;
58081;SDS011;43876;55.576;38.242;2022-08-20T13:20:50;15.65;;;7.05;;
58081;SDS011;43876;55.576;38.242;2022-08-20T13:23:17;11.30;;;6.72;;
58081;SDS011;43876;55.576;38.242;2022-08-20T13:25:44;12.05;;;7.85;;
58081;SDS011;43876;55.576;38.242;2022-08-20T13:28:11;12.05;;;6.88;;
58081;SDS011;43876;55.576;38.242;2022-08-20T13:30:38;12.30;;;7.05;;
58081;SDS011;43876;55.576;38.242;2022-08-20T13:33:07;12.43;;;7.28;;
58081;SDS011;43876;55.576;38.242;2022-08-20T13:35:34;10.90;;;7.10;;
58081;SDS011;43876;55.576;38.242;2022-08-20T13:38:01;13.70;;;5.93;;
58081;SDS011;43876;55.576;38.242;2022-08-20T13:40:28;12.18;;;6.70;;
58081;SDS011;43876;55.576;38.242;2022-08-20T13:42:55;10.20;;;6.32;;
58081;SDS011;43876;55.576;38.242;2022-08-20T13:45:22;14.13;;;5.30;;
58081;SDS011;43876;55.576;38.242;2022-08-20T13:47:53;11.70;;;5.13;;
58081;SDS011;43876;55.576;38.242;2022-08-20T13:50:22;7.85;;;4.75;;
58081;SDS011;43876;55.576;38.242;2022-08-20T13:52:49;8.25;;;4.35;;
58081;SDS011;43876;55.576;38.242;2022-08-20T13:55:18;9.50;;;5.15;;
58081;SDS011;43876;55.576;38.242;2022-08-20T13:57:47;11.13;;;5.20;;
58081;SDS011;43876;55.576;38.242;2022-08-20T14:00:17;9.55;;;4.80;;
58081;SDS011;43876;55.576;38.242;2022-08-20T14:03:01;7.97;;;4.43;;
58081;SDS011;43876;55.576;38.242;2022-08-20T14:05:29;11.68;;;4.57;;
58081;SDS011;43876;55.576;38.242;2022-08-20T14:10:54;8.02;;;3.90;;
58081;SDS011;43876;55.576;38.242;2022-08-20T14:13:23;10.77;;;4.20;;
58081;SDS011;43876;55.576;38.242;2022-08-20T14:15:52;9.30;;;4.10;;
58081;SDS011;43876;55.576;38.242;2022-08-20T14:18:20;5.13;;;3.80;;
58081;SDS011;43876;55.576;38.242;2022-08-20T14:20:47;9.82;;;3.92;;
58081;SDS011;43876;55.576;38.242;2022-08-20T14:23:14;8.50;;;4.10;;
58081;SDS011;43876;55.576;38.242;2022-08-20T14:25:45;8.85;;;4.45;;
58081;SDS011;43876;55.576;38.242;2022-08-20T14:28:18;11.63;;;4.82;;
58081;SDS011;43876;55.576;38.242;2022-08-20T14:30:48;7.40;;;4.10;;
58081;SDS011;43876;55.576;38.242;2022-08-20T14:33:19;6.82;;;3.85;;
58081;SDS011;43876;55.576;38.242;2022-08-20T14:35:47;10.02;;;3.83;;
58081;SDS011;43876;55.576;38.242;2022-08-20T14:38:14;6.90;;;3.50;;
58081;SDS011;43876;55.576;38.242;2022-08-20T14:40:41;7.93;;;4.63;;
58081;SDS011;43876;55.576;38.242;2022-08-20T14:43:08;8.13;;;3.67;;
58081;SDS011;43876;55.576;38.242;2022-08-20T14:45:35;5.20;;;3.65;;
58081;SDS011;43876;55.576;38.242;2022-08-20T14:48:04;7.47;;;3.40;;
58081;SDS011;43876;55.576;38.242;2022-08-20T14:50:33;5.00;;;3.10;;
58081;SDS011;43876;55.576;38.242;2022-08-20T14:53:01;6.72;;;2.80;;
58081;SDS011;43876;55.576;38.242;2022-08-20T14:55:30;6.75;;;3.70;;
58081;SDS011;43876;55.576;38.242;2022-08-20T14:57:59;4.60;;;3.10;;